This is the latest recevied weather packets stored in our database for station/object SV7RNH. If no packets are shown the sender has not sent any weather packets the latest 10 day(s).
| Time | Temp. | Humidity | Pressure | Rain* | Wind** | Luminosity | Snow |
|---|---|---|---|---|---|---|---|
| 1777733403 | 15° C | 35% | 1020.2 hPa | 0 mm | - | - | - |
| 1777733104 | 15.56° C | 30% | 1020.5 hPa | 0 mm | - | - | - |
| 1777732804 | 15.56° C | 27% | 1020.5 hPa | 0 mm | - | - | - |
| 1777732503 | 16.67° C | 25% | 1020.7 hPa | 0 mm | - | - | - |
| 1777732203 | 17.78° C | 18% | 1020.2 hPa | 0 mm | - | - | - |
| 1777731904 | 18.33° C | 16% | 1020.1 hPa | 0 mm | - | - | - |
| 1777731604 | 18.89° C | 15% | 1020.1 hPa | 0 mm | - | - | - |
| 1777731303 | 19.44° C | 14% | 1020.2 hPa | 0 mm | - | - | - |
| 1777731003 | 20° C | 15% | 1020.2 hPa | 0 mm | - | - | - |
| 1777730704 | 19.44° C | 16% | 1020.3 hPa | 0 mm | - | - | - |
| 1777730404 | 18.33° C | 19% | 1020.3 hPa | 0 mm | - | - | - |
| 1777730103 | 17.78° C | 20% | 1020.3 hPa | 0 mm | - | - | - |
| 1777729803 | 17.78° C | 21% | 1020.4 hPa | 0 mm | - | - | - |
| 1777729504 | 17.78° C | 21% | 1020.5 hPa | 0 mm | - | - | - |
| 1777729204 | 17.78° C | 23% | 1020.4 hPa | 0 mm | - | - | - |
| 1777728903 | 17.22° C | 20% | 1020.4 hPa | 0 mm | - | - | - |
| 1777728603 | 17.22° C | 19% | 1020.4 hPa | 0 mm | - | - | - |
| 1777728304 | 17.22° C | 18% | 1020.4 hPa | 0 mm | - | - | - |
| 1777728004 | 17.78° C | 18% | 1020.4 hPa | 0 mm | - | - | - |
| 1777727703 | 17.78° C | 20% | 1020.6 hPa | 0 mm | - | - | - |
| 1777727403 | 17.78° C | 16% | 1020.5 hPa | 0 mm | - | - | - |
| 1777727104 | 17.78° C | 15% | 1020.6 hPa | 0 mm | - | - | - |
| 1777726804 | 18.33° C | 15% | 1020.6 hPa | 0 mm | - | - | - |
| 1777726503 | 18.33° C | 15% | 1020.7 hPa | 0 mm | - | - | - |
| 1777726203 | 18.33° C | 15% | 1020.7 hPa | 0 mm | - | - | - |
* Rain latest hour (hover to see other rain measurements)
** Current wind speed in m/s (hover to see current wind gust speed)